Time;durP1;ratioP1;P1;durP2;ratioP2;P2;SDS_P1;SDS_P2;PMS_P1;PMS_P2;Temp;Humidity;BMP_temperature;BMP_pressure;BME280_temperature;BME280_humidity;BME280_pressure;Samples;Min_cycle;Max_cycle;Signal;HPM_P1;HPM_P2
2022/03/28 00:01:16;;;;;;;21.83;2.78;;;;;;;19.24;58.59;100481.38;7306481;19;130019;-37
2022/03/28 00:03:42;;;;;;;23.00;2.88;;;;;;;19.24;57.81;100468.34;7311353;19;128828;-37
2022/03/28 00:06:10;;;;;;;61.40;6.97;;;;;;;19.24;58.05;100470.94;7301816;19;153877;-40
2022/03/28 00:08:36;;;;;;;37.75;4.40;;;;;;;19.27;57.63;100472.53;7299042;19;131579;-42
2022/03/28 00:11:02;;;;;;;26.67;3.58;;;;;;;19.26;57.58;100469.09;7309019;19;130336;-40
2022/03/28 00:13:27;;;;;;;26.92;3.38;;;;;;;19.25;57.86;100470.00;7308814;19;130115;-43
2022/03/28 00:15:53;;;;;;;50.20;5.88;;;;;;;19.26;58.19;100463.88;7305942;19;154269;-45
2022/03/28 00:18:19;;;;;;;10.30;2.10;;;;;;;19.17;59.04;100445.41;7311085;19;129540;-41
2022/03/28 00:20:46;;;;;;;36.70;4.68;;;;;;;19.25;58.29;100464.78;7305334;19;130428;-41
2022/03/28 00:23:12;;;;;;;18.58;2.47;;;;;;;19.27;58.04;100465.53;7311359;19;129061;-44
2022/03/28 00:25:40;;;;;;;25.70;3.17;;;;;;;19.26;57.34;100461.25;7308911;19;130624;-41
2022/03/28 00:28:05;;;;;;;30.77;3.80;;;;;;;19.24;58.34;100463.13;7312405;19;129634;-39
2022/03/28 00:30:31;;;;;;;21.88;3.13;;;;;;;19.26;57.71;100461.25;7316072;19;130810;-44
2022/03/28 00:32:56;;;;;;;41.60;4.77;;;;;;;19.25;58.30;100459.56;7314605;19;149584;-43
2022/03/28 00:35:24;;;;;;;27.20;3.30;;;;;;;19.27;58.00;100462.09;7317469;19;129361;-43
2022/03/28 00:37:50;;;;;;;45.08;4.57;;;;;;;19.25;57.95;100451.75;7314259;19;130245;-41
2022/03/28 00:40:16;;;;;;;17.30;2.53;;;;;;;19.30;57.59;100451.50;7313321;19;129723;-37
2022/03/28 00:42:42;;;;;;;46.83;5.40;;;;;;;19.19;58.14;100431.31;7314962;19;129391;-35
2022/03/28 00:45:07;;;;;;;30.98;3.85;;;;;;;19.24;58.37;100455.31;7317223;19;129154;-34
2022/03/28 00:47:33;;;;;;;52.10;6.15;;;;;;;19.17;57.93;100427.97;7313603;19;130237;-38
2022/03/28 00:49:59;;;;;;;25.67;3.13;;;;;;;19.26;58.05;100435.19;7317480;19;130384;-35
2022/03/28 00:52:24;;;;;;;23.33;2.85;;;;;;;19.29;57.55;100440.22;7317238;19;129077;-42
2022/03/28 00:54:50;;;;;;;29.85;3.88;;;;;;;19.27;57.49;100423.00;7316704;19;129639;-37
2022/03/28 00:57:17;;;;;;;21.30;2.88;;;;;;;19.24;57.93;100424.03;7317118;19;129683;-34
2022/03/28 00:59:42;;;;;;;;;;;;;;;19.30;59.75;100421.03;7311669;19;130513;-37
2022/03/28 01:02:08;;;;;;;58.93;6.23;;;;;;;19.28;57.48;100415.06;7313252;19;129108;-39
2022/03/28 01:04:33;;;;;;;26.00;3.30;;;;;;;19.27;57.43;100412.56;7313453;19;154014;-38
2022/03/28 01:06:58;;;;;;;20.80;2.80;;;;;;;19.29;57.68;100411.53;7317984;19;129522;-40
2022/03/28 01:09:24;;;;;;;37.13;4.75;;;;;;;19.30;57.58;100413.19;7310034;19;138805;-40
2022/03/28 01:11:51;;;;;;;54.47;5.93;;;;;;;19.26;58.11;100403.91;7315812;19;129462;-42
2022/03/28 01:14:16;;;;;;;36.00;3.88;;;;;;;19.18;57.55;100380.16;7314192;19;130253;-40
2022/03/28 01:19:30;;;;;;;30.30;3.90;;;;;;;19.27;58.40;100391.72;7312713;19;129587;-39
2022/03/28 01:21:55;;;;;;;30.48;3.58;;;;;;;19.15;58.99;100372.53;7314244;19;128995;-38
2022/03/28 01:24:20;;;;;;;18.88;2.63;;;;;;;19.24;58.23;100391.91;7313935;19;154358;-39
2022/03/28 01:26:46;;;;;;;25.23;3.00;;;;;;;19.25;58.91;100386.59;7315343;19;159664;-42
2022/03/28 01:29:13;;;;;;;23.13;2.97;;;;;;;19.25;58.01;100383.16;7310735;19;130292;-40
2022/03/28 01:31:39;;;;;;;23.73;3.17;;;;;;;19.17;58.62;100365.44;7314200;19;129354;-40
2022/03/28 01:34:05;;;;;;;25.07;3.17;;;;;;;19.27;57.84;100378.69;7316893;19;128948;-39
2022/03/28 01:36:30;;;;;;;23.00;3.00;;;;;;;19.22;57.97;100363.34;7315037;19;130096;-42
2022/03/28 01:38:55;;;;;;;25.20;3.45;;;;;;;19.25;58.50;100372.72;7309236;19;130661;-42
2022/03/28 01:41:20;;;;;;;12.23;2.37;;;;;;;19.25;58.24;100378.75;7312449;19;137111;-41
2022/03/28 01:43:46;;;;;;;23.23;2.80;;;;;;;19.23;58.07;100372.00;7313178;19;153825;-40
2022/03/28 01:46:11;;;;;;;36.83;4.10;;;;;;;19.25;58.78;100362.31;7310128;19;158298;-32
2022/03/28 01:48:36;;;;;;;19.40;2.53;;;;;;;19.26;57.68;100371.78;7311664;19;157417;-35
2022/03/28 01:51:02;;;;;;;20.10;2.80;;;;;;;19.27;58.14;100371.69;7314080;19;129487;-32
2022/03/28 01:53:27;;;;;;;22.67;2.70;;;;;;;19.30;58.03;100365.47;7314625;19;129102;-33
2022/03/28 01:55:52;;;;;;;30.58;3.53;;;;;;;19.28;58.56;100356.88;7311482;19;158316;-34
2022/03/28 01:58:17;;;;;;;31.10;3.42;;;;;;;19.28;58.93;100367.31;7310086;19;130709;-35
2022/03/28 02:00:43;;;;;;;23.80;3.17;;;;;;;19.28;57.78;100357.72;7312406;19;155424;-33
2022/03/28 02:03:09;;;;;;;24.77;2.78;;;;;;;19.18;58.30;100342.81;7313943;19;129138;-41
2022/03/28 02:05:34;;;;;;;27.42;3.35;;;;;;;19.26;57.63;100359.59;7313507;19;129242;-35
2022/03/28 02:07:59;;;;;;;41.67;4.57;;;;;;;19.29;57.77;100353.34;7300828;19;160124;-43
2022/03/28 02:10:25;;;;;;;27.42;3.35;;;;;;;19.27;58.11;100350.81;7308872;19;130359;-37
2022/03/28 02:12:51;;;;;;;35.60;3.50;;;;;;;19.26;58.43;100354.38;7312798;19;130849;-42
2022/03/28 02:15:18;;;;;;;21.65;3.08;;;;;;;19.28;57.82;100352.50;7313532;19;129527;-41
2022/03/28 02:17:43;;;;;;;19.90;2.53;;;;;;;19.24;58.27;100335.41;7314712;19;130401;-37
2022/03/28 02:20:10;;;;;;;23.35;2.85;;;;;;;19.28;58.02;100347.28;7309742;19;155554;-36
2022/03/28 02:22:36;;;;;;;38.25;4.13;;;;;;;19.26;58.22;100338.75;7312910;19;130366;-33
2022/03/28 02:25:04;;;;;;;28.90;3.45;;;;;;;19.27;58.49;100339.59;7313357;19;132458;-34
2022/03/28 02:27:29;;;;;;;20.80;2.75;;;;;;;19.26;58.36;100338.75;7313441;19;130219;-34
2022/03/28 02:29:54;;;;;;;4.72;1.52;;;;;;;19.28;58.30;100330.81;7313130;19;133461;-32
2022/03/28 02:32:19;;;;;;;22.52;2.58;;;;;;;19.26;57.66;100333.53;7313185;19;154195;-38
2022/03/28 02:34:45;;;;;;;35.33;3.97;;;;;;;19.28;58.21;100336.88;7310705;19;157365;-40
2022/03/28 02:37:10;;;;;;;18.67;2.42;;;;;;;19.14;58.32;100321.34;7310839;19;158585;-36
2022/03/28 02:39:36;;;;;;;27.80;3.53;;;;;;;19.26;57.95;100333.53;7307915;19;129493;-39
2022/03/28 02:42:01;;;;;;;32.33;3.70;;;;;;;19.27;58.43;100335.19;7307309;19;130447;-38
2022/03/28 02:44:27;;;;;;;19.98;2.78;;;;;;;19.27;58.10;100329.16;7314106;19;130011;-33
2022/03/28 02:46:53;;;;;;;26.33;3.22;;;;;;;19.26;58.74;100332.69;7313882;19;129305;-36
2022/03/28 02:49:19;;;;;;;44.33;5.05;;;;;;;19.26;57.56;100330.06;7309433;19;130402;-39
2022/03/28 02:51:44;;;;;;;17.63;2.43;;;;;;;19.27;58.56;100323.94;7312528;19;130567;-40
2022/03/28 02:54:10;;;;;;;43.90;4.88;;;;;;;19.27;58.03;100319.53;7310753;19;129272;-41
2022/03/28 02:56:35;;;;;;;20.77;2.92;;;;;;;19.24;58.87;100319.75;7313633;19;130336;-36
2022/03/28 02:59:01;;;;;;;41.20;4.57;;;;;;;19.26;58.06;100322.25;7311420;19;130338;-35
2022/03/28 03:01:26;;;;;;;39.80;4.60;;;;;;;19.24;58.67;100311.94;7310857;19;130462;-34
2022/03/28 03:03:51;;;;;;;15.05;2.33;;;;;;;19.27;57.37;100319.53;7313209;19;131945;-41
2022/03/28 03:06:17;;;;;;;18.40;2.35;;;;;;;19.25;58.75;100316.19;7312191;19;130101;-37
2022/03/28 03:08:42;;;;;;;35.53;4.45;;;;;;;19.25;58.64;100312.78;7308463;19;155574;-38
2022/03/28 03:11:09;;;;;;;16.92;2.30;;;;;;;19.24;58.32;100309.34;7309995;19;131310;-37
2022/03/28 03:13:34;;;;;;;20.73;2.47;;;;;;;19.15;58.56;100283.94;7313193;19;130774;-36
2022/03/28 03:15:59;;;;;;;25.17;3.13;;;;;;;19.24;57.86;100298.06;7311310;19;150944;-35
2022/03/28 03:18:25;;;;;;;26.58;3.00;;;;;;;19.26;57.79;100299.63;7309553;19;130117;-41
2022/03/28 03:20:50;;;;;;;30.13;3.38;;;;;;;19.26;57.62;100297.03;7307405;19;129312;-38
2022/03/28 03:23:15;;;;;;;16.27;2.07;;;;;;;19.26;58.40;100307.47;7312528;19;157959;-37
2022/03/28 03:25:41;;;;;;;23.85;2.78;;;;;;;19.24;58.23;100298.91;7309917;19;129566;-33
2022/03/28 03:28:06;;;;;;;12.73;2.33;;;;;;;19.24;58.70;100293.69;7311438;19;154730;-35
2022/03/28 03:30:31;;;;;;;33.15;4.03;;;;;;;19.24;59.48;100298.06;7308476;19;130224;-36
2022/03/28 03:32:57;;;;;;;19.92;2.42;;;;;;;19.26;57.84;100297.03;7311138;19;158249;-35
2022/03/28 03:35:23;;;;;;;39.90;4.43;;;;;;;19.24;58.33;100291.09;7311660;19;130367;-37
2022/03/28 03:37:50;;;;;;;42.03;4.72;;;;;;;19.27;58.30;100290.88;7310487;19;130491;-32
2022/03/28 03:40:15;;;;;;;21.50;2.60;;;;;;;19.16;58.04;100275.16;7309600;19;129397;-35
2022/03/28 03:42:40;;;;;;;36.33;4.22;;;;;;;19.26;57.63;100294.41;7310044;19;159894;-38
2022/03/28 03:45:06;;;;;;;27.23;3.30;;;;;;;19.28;58.30;100297.75;7312985;19;130438;-36
2022/03/28 03:47:32;;;;;;;20.53;2.63;;;;;;;19.28;57.20;100300.38;7312063;19;130554;-39
2022/03/28 03:49:57;;;;;;;27.05;3.70;;;;;;;19.24;58.67;100293.69;7308893;19;129548;-34
2022/03/28 03:52:22;;;;;;;17.60;2.50;;;;;;;19.28;57.78;100292.53;7305203;19;158323;-37
2022/03/28 03:54:47;;;;;;;57.95;6.20;;;;;;;19.26;58.21;100291.81;7309250;19;130734;-35
2022/03/28 03:57:13;;;;;;;17.70;2.13;;;;;;;19.27;57.60;100290.88;7311542;19;129024;-31
2022/03/28 03:59:38;;;;;;;19.98;2.58;;;;;;;19.20;57.47;100281.00;7308676;19;129152;-41
2022/03/28 04:02:04;;;;;;;36.83;4.00;;;;;;;19.27;58.48;100287.44;7305328;19;129275;-32
2022/03/28 04:04:29;;;;;;;28.57;3.37;;;;;;;19.27;57.55;100288.25;7306424;19;130249;-38
2022/03/28 04:06:55;;;;;;;56.92;6.07;;;;;;;19.26;57.79;100280.53;7301161;19;154554;-37
2022/03/28 04:09:20;;;;;;;33.50;3.70;;;;;;;19.26;58.33;100276.19;7297760;19;131003;-45
2022/03/28 04:11:46;;;;;;;30.00;3.58;;;;;;;19.29;57.76;100275.97;7308412;19;158288;-32
2022/03/28 04:14:11;;;;;;;40.78;4.53;;;;;;;19.22;58.15;100255.66;7306446;19;129719;-35
2022/03/28 04:16:37;;;;;;;31.13;3.43;;;;;;;19.29;57.94;100268.16;7304163;19;154498;-37
2022/03/28 04:19:02;;;;;;;31.90;3.67;;;;;;;19.18;57.44;100252.44;7306938;19;154849;-35
2022/03/28 04:21:27;;;;;;;26.83;3.40;;;;;;;19.24;57.67;100267.63;7303734;19;158016;-35
2022/03/28 04:23:53;;;;;;;30.88;3.45;;;;;;;19.18;57.85;100260.25;7310364;19;131239;-41
2022/03/28 04:26:18;;;;;;;4.85;1.60;;;;;;;19.29;58.45;100269.94;7307058;19;154761;-35
2022/03/28 04:28:43;;;;;;;27.88;3.03;;;;;;;19.23;58.30;100254.69;7306599;19;130746;-38
2022/03/28 04:31:10;;;;;;;25.23;2.95;;;;;;;19.30;59.18;100266.41;7307462;19;132603;-37
2022/03/28 04:33:35;;;;;;;29.93;3.67;;;;;;;19.24;59.11;100262.41;7310637;19;129622;-35
2022/03/28 04:36:01;;;;;;;35.00;4.22;;;;;;;19.20;59.52;100263.59;7291258;19;131070;-36
2022/03/28 04:38:26;;;;;;;38.83;4.65;;;;;;;19.17;59.21;100263.78;7300461;19;130089;-37
2022/03/28 04:40:52;;;;;;;45.42;4.95;;;;;;;19.20;58.84;100260.13;7304171;19;146120;-37
2022/03/28 04:43:18;;;;;;;25.45;3.60;;;;;;;19.21;58.19;100262.63;7306541;19;131802;-37
2022/03/28 04:45:43;;;;;;;34.65;3.85;;;;;;;19.23;58.01;100252.09;7304895;19;155240;-37
2022/03/28 04:48:08;;;;;;;29.90;3.20;;;;;;;19.24;58.35;100254.59;7307699;19;153441;-36
2022/03/28 04:50:34;;;;;;;65.63;7.05;;;;;;;19.27;58.14;100249.16;7302577;19;130749;-34
2022/03/28 04:52:59;;;;;;;65.65;6.80;;;;;;;19.25;58.03;100238.00;7305635;19;130298;-38
2022/03/28 04:55:25;;;;;;;46.78;5.45;;;;;;;19.26;58.14;100246.66;7305893;19;129591;-35
2022/03/28 04:57:50;;;;;;;57.45;6.55;;;;;;;19.23;58.44;100244.28;7304835;19;130288;-41
2022/03/28 05:00:16;;;;;;;34.05;3.90;;;;;;;19.25;58.41;100232.78;7307856;19;129449;-36
2022/03/28 05:02:41;;;;;;;61.25;6.43;;;;;;;19.27;57.38;100236.13;7304877;19;129517;-33
2022/03/28 05:05:07;;;;;;;27.10;3.25;;;;;;;19.28;57.58;100237.81;7299778;19;154537;-36
2022/03/28 05:07:32;;;;;;;32.75;3.50;;;;;;;19.26;58.51;100237.06;7307336;19;129423;-33
2022/03/28 05:09:59;;;;;;;96.95;10.00;;;;;;;19.25;57.79;100238.00;7301212;19;130838;-34
2022/03/28 05:12:25;;;;;;;22.60;2.83;;;;;;;19.20;58.20;100227.09;7308647;19;130640;-37
2022/03/28 05:14:51;;;;;;;12.93;2.35;;;;;;;19.24;58.96;100236.34;7311454;19;129153;-42
2022/03/28 05:17:28;;;;;;;33.22;3.85;;;;;;;19.25;60.18;100240.59;7312116;19;129180;-40
2022/03/28 05:19:54;;;;;;;28.65;3.53;;;;;;;19.22;58.59;100243.44;7312335;19;129204;-37
2022/03/28 05:22:20;;;;;;;30.85;3.50;;;;;;;19.22;58.26;100234.81;7311757;19;129931;-35
2022/03/28 05:24:50;;;;;;;25.07;3.40;;;;;;;19.25;58.10;100232.78;7315376;19;129817;-34
2022/03/28 05:27:17;;;;;;;14.55;2.35;;;;;;;19.24;58.14;100231.13;7315149;19;129096;-37
2022/03/28 05:29:43;;;;;;;27.45;3.20;;;;;;;19.26;58.64;100239.69;7313249;19;129520;-36
2022/03/28 05:32:09;;;;;;;23.25;2.92;;;;;;;19.23;57.72;100226.88;7314766;19;129270;-36
2022/03/28 05:34:35;;;;;;;32.90;3.90;;;;;;;19.24;58.35;100231.13;7315782;19;128974;-36
2022/03/28 05:37:03;;;;;;;28.85;3.53;;;;;;;19.24;58.11;100225.91;7311280;19;143156;-37
2022/03/28 05:39:28;;;;;;;30.10;3.33;;;;;;;19.22;58.48;100225.19;7311968;19;131214;-36
2022/03/28 05:41:54;;;;;;;33.00;4.15;;;;;;;19.24;58.08;100231.13;7310387;19;158364;-40
2022/03/28 05:44:20;;;;;;;21.15;2.70;;;;;;;19.24;58.33;100225.91;7313705;19;137433;-37
2022/03/28 05:46:48;;;;;;;31.27;3.67;;;;;;;19.23;58.36;100226.88;7311443;19;155979;-37
2022/03/28 05:49:13;;;;;;;24.52;3.10;;;;;;;19.24;57.81;100231.13;7312374;19;129199;-37
2022/03/28 05:51:39;;;;;;;23.90;3.05;;;;;;;19.25;57.75;100232.78;7312865;19;130680;-31
2022/03/28 05:54:04;;;;;;;24.50;3.13;;;;;;;19.24;57.72;100231.13;7314483;19;129096;-39
2022/03/28 05:56:29;;;;;;;33.72;4.00;;;;;;;19.24;58.51;100225.91;7310930;19;154146;-37
2022/03/28 05:58:54;;;;;;;28.77;3.47;;;;;;;19.22;58.17;100235.59;7311454;19;137040;-38
2022/03/28 06:01:20;;;;;;;25.83;3.15;;;;;;;19.25;57.48;100227.56;7311572;19;158735;-36
2022/03/28 06:03:45;;;;;;;31.95;3.70;;;;;;;19.24;58.51;100225.91;7311937;19;156072;-41
2022/03/28 06:06:10;;;;;;;24.33;2.73;;;;;;;19.13;58.59;100210.22;7311583;19;154221;-39
2022/03/28 06:08:36;;;;;;;28.48;3.53;;;;;;;19.23;57.83;100234.69;7310763;19;131006;-37
2022/03/28 06:11:03;;;;;;;35.00;3.97;;;;;;;19.23;58.08;100221.66;7313129;19;130263;-35
2022/03/28 06:13:29;;;;;;;31.63;3.55;;;;;;;19.24;57.36;100225.91;7313334;19;130379;-38
2022/03/28 06:15:55;;;;;;;30.80;3.72;;;;;;;19.18;57.68;100207.28;7312260;19;129967;-39
2022/03/28 06:18:20;;;;;;;23.27;2.90;;;;;;;19.28;58.55;100213.50;7313915;19;130485;-38
2022/03/28 06:20:45;;;;;;;25.38;3.10;;;;;;;19.22;58.08;100206.13;7310667;19;144579;-40
2022/03/28 06:23:12;;;;;;;21.25;2.53;;;;;;;19.24;59.14;100212.88;7313744;19;129604;-37
2022/03/28 06:25:37;;;;;;;21.17;2.88;;;;;;;19.21;57.52;100197.47;7307274;19;131088;-36
2022/03/28 06:28:03;;;;;;;22.08;2.80;;;;;;;19.22;58.08;100204.34;7311457;19;129557;-32
2022/03/28 06:30:28;;;;;;;25.13;2.88;;;;;;;19.24;58.69;100199.84;7312819;19;130380;-36
2022/03/28 06:32:53;;;;;;;34.53;4.10;;;;;;;19.26;58.23;100195.38;7310437;19;154609;-42
2022/03/28 06:35:19;;;;;;;72.18;7.18;;;;;;;19.24;58.09;100204.22;7311092;19;130822;-40
2022/03/28 06:37:44;;;;;;;31.25;3.45;;;;;;;19.25;57.91;100201.50;7311600;19;129481;-37
2022/03/28 06:40:10;;;;;;;45.58;4.93;;;;;;;19.16;57.97;100175.28;7310775;19;145708;-41
2022/03/28 06:42:35;;;;;;;20.25;2.75;;;;;;;19.20;58.32;100193.22;7309723;19;129133;-34
2022/03/28 06:45:01;;;;;;;30.73;3.50;;;;;;;19.19;58.71;100188.91;7312174;19;129292;-34
2022/03/28 06:47:26;;;;;;;36.13;4.35;;;;;;;19.22;58.26;100187.88;7311213;19;130864;-40
2022/03/28 06:49:52;;;;;;;32.90;3.70;;;;;;;19.24;58.15;100179.00;7308572;19;134123;-37
2022/03/28 06:52:17;;;;;;;32.97;3.72;;;;;;;19.16;57.70;100154.41;7311631;19;129192;-34
2022/03/28 06:54:42;;;;;;;30.05;3.42;;;;;;;19.18;58.21;100161.19;7310033;19;153714;-38
2022/03/28 06:57:08;;;;;;;24.20;2.97;;;;;;;19.24;57.18;100168.56;7311843;19;129495;-37
2022/03/28 06:59:33;;;;;;;36.30;4.17;;;;;;;19.24;58.63;100167.72;7308851;19;158622;-38
2022/03/28 07:01:58;;;;;;;37.85;4.40;;;;;;;19.25;57.79;100170.22;7307925;19;154570;-39
2022/03/28 07:04:24;;;;;;;38.25;4.30;;;;;;;19.23;57.82;100166.91;7311359;19;129136;-34
2022/03/28 07:06:49;;;;;;;31.25;3.53;;;;;;;19.23;57.86;100166.91;7309707;19;129739;-32
2022/03/28 07:09:15;;;;;;;20.77;2.78;;;;;;;19.26;57.40;100160.63;7308551;19;159501;-38
2022/03/28 07:11:40;;;;;;;28.75;3.42;;;;;;;19.25;58.15;100159.78;7311010;19;129470;-34
2022/03/28 07:14:05;;;;;;;21.75;3.15;;;;;;;19.25;57.76;100154.59;7310226;19;154043;-33
2022/03/28 07:16:31;;;;;;;47.50;5.00;;;;;;;19.23;57.59;100160.88;7309867;19;129623;-36
2022/03/28 07:18:56;;;;;;;56.97;5.90;;;;;;;19.23;58.43;100156.50;7307508;19;159025;-36
2022/03/28 07:21:22;;;;;;;25.80;3.17;;;;;;;19.24;58.05;100152.09;7308782;19;129740;-36
2022/03/28 07:23:48;;;;;;;28.70;3.22;;;;;;;19.25;57.46;100148.56;7311409;19;129296;-35
2022/03/28 07:26:14;;;;;;;31.87;3.53;;;;;;;19.17;58.64;100136.06;7309146;19;130410;-43
2022/03/28 07:28:39;;;;;;;20.85;2.85;;;;;;;19.23;58.34;100140.00;7308962;19;130479;-35
2022/03/28 07:31:08;;;;;;;31.42;3.35;;;;;;;19.24;58.57;100141.66;7311726;19;129490;-35
2022/03/28 07:33:34;;;;;;;26.80;3.30;;;;;;;19.22;57.99;100139.16;7311910;19;129298;-36
2022/03/28 07:35:59;;;;;;;26.20;3.30;;;;;;;19.22;58.78;100131.34;7311011;19;129926;-37
2022/03/28 07:38:25;;;;;;;31.03;3.60;;;;;;;19.19;58.48;100128.97;7306557;19;159281;-34
2022/03/28 07:40:50;;;;;;;25.42;2.90;;;;;;;19.19;58.34;100126.38;7312008;19;129271;-40
2022/03/28 07:43:16;;;;;;;19.47;2.70;;;;;;;19.25;58.34;100127.69;7311103;19;157482;-40
2022/03/28 07:45:41;;;;;;;20.02;2.55;;;;;;;19.24;57.60;100131.22;7311489;19;130118;-33
2022/03/28 07:48:07;;;;;;;31.85;3.72;;;;;;;19.23;58.33;100125.22;7310631;19;129573;-34
2022/03/28 07:50:32;;;;;;;15.00;2.23;;;;;;;19.24;57.58;100116.44;7311913;19;129185;-36
2022/03/28 07:52:58;;;;;;;30.40;3.38;;;;;;;19.12;58.33;100100.88;7312429;19;129045;-41
2022/03/28 07:55:25;;;;;;;44.03;5.07;;;;;;;19.21;58.42;100111.44;7310229;19;149295;-30
2022/03/28 07:57:51;;;;;;;27.58;3.22;;;;;;;19.21;57.67;100106.25;7310919;19;131373;-39
2022/03/28 08:00:17;;;;;;;29.55;3.20;;;;;;;19.22;58.10;100102.69;7312215;19;128737;-35
2022/03/28 08:02:43;;;;;;;31.00;3.53;;;;;;;19.20;57.71;100106.34;7309026;19;129249;-44
2022/03/28 08:05:10;;;;;;;23.50;2.90;;;;;;;19.21;57.58;100095.81;7312060;19;129692;-39
2022/03/28 08:07:36;;;;;;;25.92;3.08;;;;;;;19.22;57.71;100094.03;7312303;19;130490;-38
2022/03/28 08:10:05;;;;;;;28.48;3.67;;;;;;;19.21;58.73;100095.81;7311765;19;128942;-36
2022/03/28 08:12:30;;;;;;;31.55;3.63;;;;;;;19.15;57.49;100075.41;7312108;19;129378;-33
2022/03/28 08:14:56;;;;;;;25.88;3.47;;;;;;;19.20;58.15;100083.75;7308880;19;130465;-40
2022/03/28 08:17:22;;;;;;;25.98;3.03;;;;;;;19.08;59.23;100068.16;7310247;19;129936;-38
2022/03/28 08:19:47;;;;;;;20.45;2.85;;;;;;;19.18;58.46;100077.81;7306774;19;130118;-39
2022/03/28 08:22:14;;;;;;;21.52;2.50;;;;;;;19.17;58.89;100076.13;7309768;19;129464;-36
2022/03/28 08:24:39;;;;;;;20.08;2.60;;;;;;;19.07;58.27;100058.69;7309968;19;130827;-38
2022/03/28 08:27:04;;;;;;;22.25;2.63;;;;;;;19.21;57.83;100069.75;7308974;19;129925;-35
2022/03/28 08:29:32;;;;;;;32.00;3.55;;;;;;;19.18;58.58;100066.53;7307711;19;142920;-39
2022/03/28 08:31:58;;;;;;;48.17;5.03;;;;;;;19.17;59.36;100063.09;7307582;19;129178;-37
2022/03/28 08:34:23;;;;;;;29.65;3.60;;;;;;;19.12;58.08;100048.75;7309805;19;129175;-36
2022/03/28 08:36:48;;;;;;;31.75;3.38;;;;;;;19.22;57.98;100055.75;7306631;19;158429;-37
2022/03/28 08:39:14;;;;;;;25.83;2.93;;;;;;;19.22;57.75;100055.75;7306808;19;154379;-37
2022/03/28 08:41:39;;;;;;;26.75;2.78;;;;;;;19.21;58.53;100043.69;7295146;19;152797;-39
2022/03/28 08:44:05;;;;;;;28.45;3.38;;;;;;;19.11;57.74;100024.47;7306210;19;159538;-37
2022/03/28 08:46:30;;;;;;;30.00;3.53;;;;;;;19.19;58.11;100029.09;7307943;19;157094;-44
2022/03/28 08:48:57;;;;;;;35.03;3.85;;;;;;;19.07;58.69;100025.63;7310780;19;129121;-39
2022/03/28 08:51:23;;;;;;;;;;;;;;;19.20;59.89;100026.41;7312965;19;130799;-37
2022/03/28 08:53:50;;;;;;;48.08;4.75;;;;;;;19.24;58.81;100037.41;7313932;19;130827;-34
2022/03/28 08:56:15;;;;;;;21.55;2.65;;;;;;;19.20;57.94;100031.59;7315561;19;130772;-30
2022/03/28 08:58:41;;;;;;;27.13;3.15;;;;;;;19.21;58.37;100025.44;7315255;19;129064;-36
2022/03/28 09:01:06;;;;;;;37.77;3.97;;;;;;;19.25;57.71;100024.25;7312883;19;154535;-39
2022/03/28 09:03:41;;;;;;;28.02;3.13;;;;;;;19.20;58.92;100022.94;7316113;19;129469;-38
2022/03/28 09:06:36;;;;;;;35.88;3.53;;;;;;;19.25;59.57;100026.03;7314555;19;131549;-38
2022/03/28 09:09:27;;;;;;;26.70;3.22;;;;;;;19.21;59.49;100025.44;7315861;19;129350;-40
2022/03/28 09:11:55;;;;;;;28.00;3.03;;;;;;;19.19;59.05;100019.50;7317070;19;128872;-39
2022/03/28 09:14:31;;;;;;;26.23;3.25;;;;;;;19.39;55.54;100021.50;7316541;19;128999;-34
2022/03/28 09:17:04;;;;;;;35.67;3.67;;;;;;;19.98;53.50;100014.31;7314169;19;131241;-40
2022/03/28 09:19:51;;;;;;;34.80;3.60;;;;;;;20.63;51.94;100012.59;7313500;19;128993;-31
2022/03/28 09:22:19;;;;;;;31.13;3.40;;;;;;;21.04;51.40;100011.84;7316052;19;129277;-39
2022/03/28 09:24:45;;;;;;;33.25;3.70;;;;;;;21.25;50.56;100010.09;7312732;19;129470;-34
2022/03/28 09:27:14;;;;;;;24.20;2.72;;;;;;;21.40;50.53;99993.09;7315683;19;130012;-41
2022/03/28 09:29:57;;;;;;;29.27;3.22;;;;;;;21.81;49.69;100003.56;7313716;19;129059;-38
2022/03/28 09:32:26;;;;;;;23.65;2.58;;;;;;;21.84;49.59;99998.06;7316435;19;129054;-36
2022/03/28 09:35:19;;;;;;;27.08;2.83;;;;;;;21.84;49.94;99992.84;7315528;19;130407;-41
2022/03/28 09:37:51;;;;;;;12.02;1.85;;;;;;;22.00;49.47;99986.28;7312959;19;130763;-36
2022/03/28 09:40:35;;;;;;;23.80;2.65;;;;;;;22.33;49.16;99988.59;7316501;19;128928;-39
2022/03/28 09:43:16;;;;;;;31.17;3.30;;;;;;;22.27;48.56;99976.84;7314645;19;129459;-40
2022/03/28 09:45:47;;;;;;;23.60;2.40;;;;;;;22.53;48.02;99974.56;7315536;19;130730;-37
2022/03/28 09:48:14;;;;;;;24.65;2.65;;;;;;;22.51;48.32;99966.00;7315679;19;130505;-42
2022/03/28 09:50:44;;;;;;;29.83;3.33;;;;;;;22.34;49.12;99969.28;7313401;19;130931;-39
2022/03/28 09:53:22;;;;;;;40.83;4.13;;;;;;;22.54;48.84;99960.50;7315740;19;129529;-37
2022/03/28 09:55:49;;;;;;;28.10;3.05;;;;;;;22.54;48.39;99950.03;7315465;19;130188;-38
2022/03/28 09:58:30;;;;;;;;;;;;;;;22.70;48.14;99953.75;7314569;19;130035;-37
2022/03/28 10:00:55;;;;;;;29.83;3.28;;;;;;;22.83;48.58;99942.97;7312275;19;129237;-35
2022/03/28 10:03:22;;;;;;;33.40;3.05;;;;;;;22.94;48.41;99948.09;7309988;19;129318;-43
2022/03/28 10:05:48;;;;;;;24.80;2.58;;;;;;;22.93;47.83;99941.19;7307373;19;130147;-38
2022/03/28 10:08:14;;;;;;;27.30;2.80;;;;;;;22.91;48.41;99927.38;7313078;19;130045;-33
2022/03/28 10:10:40;;;;;;;21.60;2.35;;;;;;;22.96;48.42;99941.72;7314903;19;129198;-31
2022/03/28 10:13:05;;;;;;;26.35;2.85;;;;;;;22.84;48.40;99921.88;7314165;19;129400;-38
2022/03/28 10:15:30;;;;;;;48.55;4.80;;;;;;;23.08;47.76;99929.28;7314727;19;129477;-41
2022/03/28 10:17:56;;;;;;;28.92;3.25;;;;;;;23.03;47.79;99931.50;7306818;19;131167;-37
2022/03/28 10:20:21;;;;;;;21.45;2.40;;;;;;;23.05;48.54;99935.66;7315133;19;129659;-36
2022/03/28 10:22:50;;;;;;;29.90;3.22;;;;;;;23.25;47.35;99932.00;7306103;19;131532;-38
2022/03/28 10:25:19;;;;;;;21.45;2.33;;;;;;;23.29;47.43;99911.59;7313806;19;130615;-40
2022/03/28 10:27:45;;;;;;;26.08;2.83;;;;;;;23.25;47.72;99925.94;7313756;19;131267;-39
2022/03/28 10:30:24;;;;;;;20.02;2.25;;;;;;;23.29;47.56;99922.09;7314365;19;128839;-40
2022/03/28 10:33:19;;;;;;;18.25;2.10;;;;;;;23.26;47.66;99911.84;7313737;19;129639;-41
2022/03/28 10:36:05;;;;;;;27.45;2.80;;;;;;;23.52;47.52;99907.63;7314891;19;130710;-38
2022/03/28 10:38:30;;;;;;;25.73;2.67;;;;;;;23.54;47.28;99910.94;7313159;19;131043;-38
2022/03/28 10:41:01;;;;;;;37.35;3.85;;;;;;;23.53;47.72;99909.31;7314394;19;129093;-35
2022/03/28 10:43:29;;;;;;;24.85;2.67;;;;;;;23.71;46.86;99907.56;7311731;19;128876;-37
2022/03/28 10:45:57;;;;;;;25.20;2.70;;;;;;;23.82;46.83;99914.41;7314072;19;129978;-42
2022/03/28 10:48:34;;;;;;;25.10;2.70;;;;;;;23.72;47.07;99892.63;7312479;19;129156;-35
2022/03/28 10:51:08;;;;;;;30.35;3.30;;;;;;;23.88;47.09;99893.63;7313668;19;129256;-37
2022/03/28 10:53:51;;;;;;;35.15;3.70;;;;;;;23.72;47.58;99887.38;7313926;19;130006;-42
2022/03/28 10:56:24;;;;;;;23.88;2.38;;;;;;;23.68;47.09;99886.03;7313585;19;130539;-39
2022/03/28 10:58:53;;;;;;;17.35;2.35;;;;;;;23.86;46.73;99879.84;7313094;19;129420;-38
2022/03/28 11:01:25;;;;;;;23.08;2.45;;;;;;;23.84;46.97;99881.78;7313599;19;129685;-40
2022/03/28 11:04:03;;;;;;;34.28;3.47;;;;;;;23.79;47.24;99852.53;7312788;19;129027;-36
2022/03/28 11:06:45;;;;;;;22.75;2.65;;;;;;;23.87;47.17;99857.88;7312160;19;129531;-39
2022/03/28 11:09:11;;;;;;;23.27;2.67;;;;;;;24.13;46.76;99856.19;7311530;19;130456;-37
2022/03/28 11:11:55;;;;;;;23.88;2.65;;;;;;;24.03;47.02;99858.06;7313182;19;128920;-37
2022/03/28 11:14:37;;;;;;;32.15;3.42;;;;;;;24.00;47.29;99850.47;7314562;19;129879;-37